sensor_id;sensor_type;location;lat;lon;timestamp;temperature;humidity
9057;DHT22;4563;54.756;9.400;2022-08-20T00:02:00;21.90;69.40
9057;DHT22;4563;54.756;9.400;2022-08-20T00:04:27;21.90;69.40
9057;DHT22;4563;54.756;9.400;2022-08-20T00:06:55;21.90;69.40
9057;DHT22;4563;54.756;9.400;2022-08-20T00:09:24;21.90;69.50
9057;DHT22;4563;54.756;9.400;2022-08-20T00:11:51;21.90;69.40
9057;DHT22;4563;54.756;9.400;2022-08-20T00:14:18;21.90;69.60
9057;DHT22;4563;54.756;9.400;2022-08-20T00:16:45;21.90;69.70
9057;DHT22;4563;54.756;9.400;2022-08-20T00:19:12;21.90;69.70
9057;DHT22;4563;54.756;9.400;2022-08-20T00:21:39;21.90;69.70
9057;DHT22;4563;54.756;9.400;2022-08-20T00:24:07;21.90;69.90
9057;DHT22;4563;54.756;9.400;2022-08-20T00:26:34;21.90;70.40
9057;DHT22;4563;54.756;9.400;2022-08-20T00:29:01;21.90;70.00
9057;DHT22;4563;54.756;9.400;2022-08-20T00:31:27;21.90;70.00
9057;DHT22;4563;54.756;9.400;2022-08-20T00:33:54;21.90;70.10
9057;DHT22;4563;54.756;9.400;2022-08-20T00:36:21;21.90;70.30
9057;DHT22;4563;54.756;9.400;2022-08-20T00:38:49;21.90;70.40
9057;DHT22;4563;54.756;9.400;2022-08-20T00:41:22;21.90;70.40
9057;DHT22;4563;54.756;9.400;2022-08-20T00:43:52;21.90;70.40
9057;DHT22;4563;54.756;9.400;2022-08-20T00:46:21;21.90;70.50
9057;DHT22;4563;54.756;9.400;2022-08-20T00:48:50;21.90;70.60
9057;DHT22;4563;54.756;9.400;2022-08-20T00:51:24;21.90;70.60
9057;DHT22;4563;54.756;9.400;2022-08-20T00:53:54;21.90;70.40
9057;DHT22;4563;54.756;9.400;2022-08-20T00:56:23;21.90;70.70
9057;DHT22;4563;54.756;9.400;2022-08-20T00:58:51;22.00;70.80
9057;DHT22;4563;54.756;9.400;2022-08-20T01:01:18;21.90;71.60
9057;DHT22;4563;54.756;9.400;2022-08-20T01:03:47;21.90;70.90
9057;DHT22;4563;54.756;9.400;2022-08-20T01:06:14;21.90;70.90
9057;DHT22;4563;54.756;9.400;2022-08-20T01:08:42;21.90;70.90
9057;DHT22;4563;54.756;9.400;2022-08-20T01:11:09;21.90;70.90
9057;DHT22;4563;54.756;9.400;2022-08-20T01:13:40;21.90;70.90
9057;DHT22;4563;54.756;9.400;2022-08-20T01:16:13;21.90;71.00
9057;DHT22;4563;54.756;9.400;2022-08-20T01:18:44;21.80;70.90
9057;DHT22;4563;54.756;9.400;2022-08-20T01:21:13;21.90;71.20
9057;DHT22;4563;54.756;9.400;2022-08-20T01:23:47;21.90;71.20
9057;DHT22;4563;54.756;9.400;2022-08-20T01:26:18;21.80;71.00
9057;DHT22;4563;54.756;9.400;2022-08-20T01:28:51;21.80;71.10
9057;DHT22;4563;54.756;9.400;2022-08-20T01:31:20;21.80;71.20
9057;DHT22;4563;54.756;9.400;2022-08-20T01:33:48;21.80;71.30
9057;DHT22;4563;54.756;9.400;2022-08-20T01:36:19;21.80;70.80
9057;DHT22;4563;54.756;9.400;2022-08-20T01:38:47;21.80;71.30
9057;DHT22;4563;54.756;9.400;2022-08-20T01:41:22;21.80;71.30
9057;DHT22;4563;54.756;9.400;2022-08-20T01:43:54;21.80;71.00
9057;DHT22;4563;54.756;9.400;2022-08-20T01:46:23;21.80;71.30
9057;DHT22;4563;54.756;9.400;2022-08-20T01:48:51;21.80;71.50
9057;DHT22;4563;54.756;9.400;2022-08-20T01:51:21;21.80;71.50
9057;DHT22;4563;54.756;9.400;2022-08-20T01:54:21;21.80;71.70
9057;DHT22;4563;54.756;9.400;2022-08-20T01:56:58;21.80;70.00
9057;DHT22;4563;54.756;9.400;2022-08-20T01:59:26;21.70;70.90
9057;DHT22;4563;54.756;9.400;2022-08-20T02:01:54;21.70;71.70
9057;DHT22;4563;54.756;9.400;2022-08-20T02:04:22;21.70;71.80
9057;DHT22;4563;54.756;9.400;2022-08-20T02:06:52;21.70;71.90
9057;DHT22;4563;54.756;9.400;2022-08-20T02:09:20;21.70;72.00
9057;DHT22;4563;54.756;9.400;2022-08-20T02:11:47;21.70;72.00
9057;DHT22;4563;54.756;9.400;2022-08-20T02:14:16;21.70;72.10
9057;DHT22;4563;54.756;9.400;2022-08-20T02:16:44;21.70;72.20
9057;DHT22;4563;54.756;9.400;2022-08-20T02:19:15;21.70;72.30
9057;DHT22;4563;54.756;9.400;2022-08-20T02:21:46;21.70;72.30
9057;DHT22;4563;54.756;9.400;2022-08-20T02:24:13;21.70;72.40
9057;DHT22;4563;54.756;9.400;2022-08-20T02:26:41;21.70;72.40
9057;DHT22;4563;54.756;9.400;2022-08-20T02:29:11;21.70;72.50
9057;DHT22;4563;54.756;9.400;2022-08-20T02:31:41;21.60;72.40
9057;DHT22;4563;54.756;9.400;2022-08-20T02:34:10;21.70;72.50
9057;DHT22;4563;54.756;9.400;2022-08-20T02:36:39;21.70;73.60
9057;DHT22;4563;54.756;9.400;2022-08-20T02:39:08;21.70;73.90
9057;DHT22;4563;54.756;9.400;2022-08-20T02:41:36;21.70;74.20
9057;DHT22;4563;54.756;9.400;2022-08-20T02:44:04;21.70;74.30
9057;DHT22;4563;54.756;9.400;2022-08-20T02:46:32;21.80;74.50
9057;DHT22;4563;54.756;9.400;2022-08-20T02:49:00;21.80;74.60
9057;DHT22;4563;54.756;9.400;2022-08-20T02:51:27;21.80;74.60
9057;DHT22;4563;54.756;9.400;2022-08-20T02:53:54;21.80;74.80
9057;DHT22;4563;54.756;9.400;2022-08-20T02:56:21;21.80;74.90
9057;DHT22;4563;54.756;9.400;2022-08-20T02:58:48;21.80;75.00
9057;DHT22;4563;54.756;9.400;2022-08-20T03:01:16;21.80;75.20
9057;DHT22;4563;54.756;9.400;2022-08-20T03:03:43;21.80;75.40
9057;DHT22;4563;54.756;9.400;2022-08-20T03:06:12;21.80;75.50
9057;DHT22;4563;54.756;9.400;2022-08-20T03:08:40;21.80;75.70
9057;DHT22;4563;54.756;9.400;2022-08-20T03:11:07;21.80;75.70
9057;DHT22;4563;54.756;9.400;2022-08-20T03:13:34;21.80;75.80
9057;DHT22;4563;54.756;9.400;2022-08-20T03:16:02;21.80;76.00
9057;DHT22;4563;54.756;9.400;2022-08-20T03:18:31;21.80;76.00
9057;DHT22;4563;54.756;9.400;2022-08-20T03:20:58;21.80;76.10
9057;DHT22;4563;54.756;9.400;2022-08-20T03:23:27;21.80;76.00
9057;DHT22;4563;54.756;9.400;2022-08-20T03:25:54;21.80;76.10
9057;DHT22;4563;54.756;9.400;2022-08-20T03:28:21;21.80;76.10
9057;DHT22;4563;54.756;9.400;2022-08-20T03:30:48;21.80;76.10
9057;DHT22;4563;54.756;9.400;2022-08-20T03:33:16;21.80;76.10
9057;DHT22;4563;54.756;9.400;2022-08-20T03:35:45;21.80;76.10
9057;DHT22;4563;54.756;9.400;2022-08-20T03:38:13;21.80;76.20
9057;DHT22;4563;54.756;9.400;2022-08-20T03:40:43;21.80;76.10
9057;DHT22;4563;54.756;9.400;2022-08-20T03:43:10;21.80;76.10
9057;DHT22;4563;54.756;9.400;2022-08-20T03:45:39;21.80;76.10
9057;DHT22;4563;54.756;9.400;2022-08-20T03:48:08;21.80;76.20
9057;DHT22;4563;54.756;9.400;2022-08-20T03:50:36;21.80;76.20
9057;DHT22;4563;54.756;9.400;2022-08-20T03:53:07;21.80;76.10
9057;DHT22;4563;54.756;9.400;2022-08-20T03:55:34;21.80;76.20
9057;DHT22;4563;54.756;9.400;2022-08-20T03:58:05;21.80;76.20
9057;DHT22;4563;54.756;9.400;2022-08-20T04:00:34;21.80;76.20
9057;DHT22;4563;54.756;9.400;2022-08-20T04:03:01;21.80;76.10
9057;DHT22;4563;54.756;9.400;2022-08-20T04:05:30;21.80;76.00
9057;DHT22;4563;54.756;9.400;2022-08-20T04:08:00;21.80;76.10
9057;DHT22;4563;54.756;9.400;2022-08-20T04:10:27;21.80;76.10
9057;DHT22;4563;54.756;9.400;2022-08-20T04:12:54;21.80;76.00
9057;DHT22;4563;54.756;9.400;2022-08-20T04:15:23;21.80;75.90
9057;DHT22;4563;54.756;9.400;2022-08-20T04:17:50;21.80;75.90
9057;DHT22;4563;54.756;9.400;2022-08-20T04:20:19;21.80;75.90
9057;DHT22;4563;54.756;9.400;2022-08-20T04:22:47;21.80;75.90
9057;DHT22;4563;54.756;9.400;2022-08-20T04:25:14;21.80;75.80
9057;DHT22;4563;54.756;9.400;2022-08-20T04:27:41;21.80;75.70
9057;DHT22;4563;54.756;9.400;2022-08-20T04:30:11;21.80;75.80
9057;DHT22;4563;54.756;9.400;2022-08-20T04:32:40;21.80;75.80
9057;DHT22;4563;54.756;9.400;2022-08-20T04:35:09;21.80;75.80
9057;DHT22;4563;54.756;9.400;2022-08-20T04:37:41;21.80;75.80
9057;DHT22;4563;54.756;9.400;2022-08-20T04:40:11;21.70;75.70
9057;DHT22;4563;54.756;9.400;2022-08-20T04:42:56;21.80;75.70
9057;DHT22;4563;54.756;9.400;2022-08-20T04:45:23;21.70;75.60
9057;DHT22;4563;54.756;9.400;2022-08-20T04:47:52;21.70;75.40
9057;DHT22;4563;54.756;9.400;2022-08-20T04:50:19;21.70;75.40
9057;DHT22;4563;54.756;9.400;2022-08-20T04:52:46;21.70;75.30
9057;DHT22;4563;54.756;9.400;2022-08-20T04:55:14;21.70;75.30
9057;DHT22;4563;54.756;9.400;2022-08-20T04:57:42;21.70;75.30
9057;DHT22;4563;54.756;9.400;2022-08-20T05:00:12;21.60;75.10
9057;DHT22;4563;54.756;9.400;2022-08-20T05:02:40;21.70;75.30
9057;DHT22;4563;54.756;9.400;2022-08-20T05:05:09;21.60;75.10
9057;DHT22;4563;54.756;9.400;2022-08-20T05:07:38;21.70;75.20
9057;DHT22;4563;54.756;9.400;2022-08-20T05:10:07;21.60;75.10
9057;DHT22;4563;54.756;9.400;2022-08-20T05:12:34;21.60;75.20
9057;DHT22;4563;54.756;9.400;2022-08-20T05:15:01;21.60;75.10
9057;DHT22;4563;54.756;9.400;2022-08-20T05:17:29;21.60;75.00
9057;DHT22;4563;54.756;9.400;2022-08-20T05:19:56;21.60;75.00
9057;DHT22;4563;54.756;9.400;2022-08-20T05:22:25;21.60;75.00
9057;DHT22;4563;54.756;9.400;2022-08-20T05:24:53;21.60;75.00
9057;DHT22;4563;54.756;9.400;2022-08-20T05:27:21;21.50;74.90
9057;DHT22;4563;54.756;9.400;2022-08-20T05:29:51;21.50;74.90
9057;DHT22;4563;54.756;9.400;2022-08-20T05:32:20;21.50;74.90
9057;DHT22;4563;54.756;9.400;2022-08-20T05:34:47;21.50;75.00
9057;DHT22;4563;54.756;9.400;2022-08-20T05:37:14;21.60;75.00
9057;DHT22;4563;54.756;9.400;2022-08-20T05:39:43;21.50;74.90
9057;DHT22;4563;54.756;9.400;2022-08-20T05:42:10;21.50;74.90
9057;DHT22;4563;54.756;9.400;2022-08-20T05:44:37;21.50;74.90
9057;DHT22;4563;54.756;9.400;2022-08-20T05:47:06;21.50;74.90
9057;DHT22;4563;54.756;9.400;2022-08-20T05:49:33;21.50;74.80
9057;DHT22;4563;54.756;9.400;2022-08-20T05:52:00;21.50;75.00
9057;DHT22;4563;54.756;9.400;2022-08-20T05:54:27;21.50;75.00
9057;DHT22;4563;54.756;9.400;2022-08-20T05:56:55;21.50;75.00
9057;DHT22;4563;54.756;9.400;2022-08-20T05:59:23;21.50;75.10
9057;DHT22;4563;54.756;9.400;2022-08-20T06:01:51;21.50;75.20
9057;DHT22;4563;54.756;9.400;2022-08-20T06:04:18;21.50;75.10
9057;DHT22;4563;54.756;9.400;2022-08-20T06:06:52;21.50;75.20
9057;DHT22;4563;54.756;9.400;2022-08-20T06:09:21;21.50;75.20
9057;DHT22;4563;54.756;9.400;2022-08-20T06:11:48;21.50;75.20
9057;DHT22;4563;54.756;9.400;2022-08-20T06:14:17;21.50;75.10
9057;DHT22;4563;54.756;9.400;2022-08-20T06:16:45;21.60;75.20
9057;DHT22;4563;54.756;9.400;2022-08-20T06:19:12;21.50;75.80
9057;DHT22;4563;54.756;9.400;2022-08-20T06:21:40;21.60;75.30
9057;DHT22;4563;54.756;9.400;2022-08-20T06:24:07;21.60;75.40
9057;DHT22;4563;54.756;9.400;2022-08-20T06:26:35;21.60;75.40
9057;DHT22;4563;54.756;9.400;2022-08-20T06:29:03;21.60;75.50
9057;DHT22;4563;54.756;9.400;2022-08-20T06:31:32;21.60;75.60
9057;DHT22;4563;54.756;9.400;2022-08-20T06:34:04;21.60;75.50
9057;DHT22;4563;54.756;9.400;2022-08-20T06:36:31;21.70;75.50
9057;DHT22;4563;54.756;9.400;2022-08-20T06:38:58;21.60;75.50
9057;DHT22;4563;54.756;9.400;2022-08-20T06:41:25;21.70;76.40
9057;DHT22;4563;54.756;9.400;2022-08-20T06:43:52;21.70;75.80
9057;DHT22;4563;54.756;9.400;2022-08-20T06:46:19;21.70;75.80
9057;DHT22;4563;54.756;9.400;2022-08-20T06:48:49;21.70;75.80
9057;DHT22;4563;54.756;9.400;2022-08-20T06:51:17;21.80;75.80
9057;DHT22;4563;54.756;9.400;2022-08-20T06:53:45;21.70;75.70
9057;DHT22;4563;54.756;9.400;2022-08-20T06:56:12;21.80;75.70
9057;DHT22;4563;54.756;9.400;2022-08-20T06:58:39;21.80;75.80
9057;DHT22;4563;54.756;9.400;2022-08-20T07:01:07;21.80;75.70
9057;DHT22;4563;54.756;9.400;2022-08-20T07:03:34;21.80;75.90
9057;DHT22;4563;54.756;9.400;2022-08-20T07:21:04;22.10;75.90
9057;DHT22;4563;54.756;9.400;2022-08-20T07:23:32;22.00;75.50
9057;DHT22;4563;54.756;9.400;2022-08-20T07:25:59;22.10;76.10
9057;DHT22;4563;54.756;9.400;2022-08-20T07:28:26;22.10;75.20
9057;DHT22;4563;54.756;9.400;2022-08-20T07:30:54;22.10;75.20
9057;DHT22;4563;54.756;9.400;2022-08-20T07:33:39;22.20;75.10
9057;DHT22;4563;54.756;9.400;2022-08-20T07:36:08;22.20;74.90
9057;DHT22;4563;54.756;9.400;2022-08-20T07:38:35;22.20;74.60
9057;DHT22;4563;54.756;9.400;2022-08-20T07:41:05;22.30;74.70
9057;DHT22;4563;54.756;9.400;2022-08-20T07:43:32;22.30;74.60
9057;DHT22;4563;54.756;9.400;2022-08-20T07:46:01;22.30;74.60
9057;DHT22;4563;54.756;9.400;2022-08-20T07:48:32;22.40;74.70
9057;DHT22;4563;54.756;9.400;2022-08-20T07:51:00;22.40;74.40
9057;DHT22;4563;54.756;9.400;2022-08-20T07:53:29;22.50;74.40
9057;DHT22;4563;54.756;9.400;2022-08-20T07:55:57;22.50;74.30
9057;DHT22;4563;54.756;9.400;2022-08-20T07:58:25;22.60;74.30
9057;DHT22;4563;54.756;9.400;2022-08-20T08:00:51;22.60;74.20
9057;DHT22;4563;54.756;9.400;2022-08-20T08:03:18;22.60;74.10
9057;DHT22;4563;54.756;9.400;2022-08-20T08:05:47;22.70;74.00
9057;DHT22;4563;54.756;9.400;2022-08-20T08:08:19;22.70;73.60
9057;DHT22;4563;54.756;9.400;2022-08-20T08:10:50;22.80;73.70
9057;DHT22;4563;54.756;9.400;2022-08-20T08:13:18;22.80;73.50
9057;DHT22;4563;54.756;9.400;2022-08-20T08:15:47;22.90;73.20
9057;DHT22;4563;54.756;9.400;2022-08-20T08:18:20;22.90;72.30
9057;DHT22;4563;54.756;9.400;2022-08-20T08:20:50;23.00;71.90
9057;DHT22;4563;54.756;9.400;2022-08-20T08:23:18;23.10;71.70
9057;DHT22;4563;54.756;9.400;2022-08-20T08:25:45;23.10;71.30
9057;DHT22;4563;54.756;9.400;2022-08-20T08:28:14;23.20;70.90
9057;DHT22;4563;54.756;9.400;2022-08-20T08:30:42;23.20;70.40
9057;DHT22;4563;54.756;9.400;2022-08-20T08:33:17;23.30;70.30
9057;DHT22;4563;54.756;9.400;2022-08-20T08:35:53;23.40;70.20
9057;DHT22;4563;54.756;9.400;2022-08-20T08:38:21;23.40;70.10
9057;DHT22;4563;54.756;9.400;2022-08-20T08:40:50;23.50;70.10
9057;DHT22;4563;54.756;9.400;2022-08-20T08:43:22;23.50;69.80
9057;DHT22;4563;54.756;9.400;2022-08-20T08:45:55;23.50;69.70
9057;DHT22;4563;54.756;9.400;2022-08-20T08:48:29;23.60;69.80
9057;DHT22;4563;54.756;9.400;2022-08-20T08:50:57;23.60;69.40
9057;DHT22;4563;54.756;9.400;2022-08-20T08:53:30;23.60;69.10
9057;DHT22;4563;54.756;9.400;2022-08-20T08:55:58;23.60;68.70
9057;DHT22;4563;54.756;9.400;2022-08-20T08:58:27;23.70;68.10
9057;DHT22;4563;54.756;9.400;2022-08-20T09:00:53;23.70;67.40
9057;DHT22;4563;54.756;9.400;2022-08-20T09:03:25;23.80;67.50
9057;DHT22;4563;54.756;9.400;2022-08-20T09:05:57;23.90;67.70
9057;DHT22;4563;54.756;9.400;2022-08-20T09:08:26;24.00;67.50
9057;DHT22;4563;54.756;9.400;2022-08-20T09:11:00;24.10;67.30
9057;DHT22;4563;54.756;9.400;2022-08-20T09:13:28;24.20;67.10
9057;DHT22;4563;54.756;9.400;2022-08-20T09:15:56;24.30;66.50
9057;DHT22;4563;54.756;9.400;2022-08-20T09:18:23;24.50;66.00
9057;DHT22;4563;54.756;9.400;2022-08-20T09:20:50;24.60;65.70
9057;DHT22;4563;54.756;9.400;2022-08-20T09:23:17;24.80;64.90
9057;DHT22;4563;54.756;9.400;2022-08-20T09:25:43;24.90;64.20
9057;DHT22;4563;54.756;9.400;2022-08-20T09:28:11;25.00;64.00
9057;DHT22;4563;54.756;9.400;2022-08-20T09:30:39;25.20;63.20
9057;DHT22;4563;54.756;9.400;2022-08-20T09:33:06;25.40;63.00
9057;DHT22;4563;54.756;9.400;2022-08-20T09:35:36;25.60;62.60
9057;DHT22;4563;54.756;9.400;2022-08-20T09:38:05;25.70;62.00
9057;DHT22;4563;54.756;9.400;2022-08-20T09:40:37;25.90;61.20
9057;DHT22;4563;54.756;9.400;2022-08-20T09:43:07;26.10;59.90
9057;DHT22;4563;54.756;9.400;2022-08-20T09:45:34;26.30;59.60
9057;DHT22;4563;54.756;9.400;2022-08-20T09:48:03;26.40;59.40
9057;DHT22;4563;54.756;9.400;2022-08-20T09:50:32;26.60;58.80
9057;DHT22;4563;54.756;9.400;2022-08-20T09:53:03;26.70;58.10
9057;DHT22;4563;54.756;9.400;2022-08-20T09:55:34;26.80;57.50
9057;DHT22;4563;54.756;9.400;2022-08-20T09:58:05;27.00;57.30
9057;DHT22;4563;54.756;9.400;2022-08-20T10:00:34;27.20;57.30
9057;DHT22;4563;54.756;9.400;2022-08-20T10:03:04;27.40;57.00
9057;DHT22;4563;54.756;9.400;2022-08-20T10:05:32;27.60;56.90
9057;DHT22;4563;54.756;9.400;2022-08-20T10:08:04;27.70;56.50
9057;DHT22;4563;54.756;9.400;2022-08-20T10:10:31;27.90;55.80
9057;DHT22;4563;54.756;9.400;2022-08-20T10:12:58;28.00;54.90
9057;DHT22;4563;54.756;9.400;2022-08-20T10:15:27;28.20;54.00
9057;DHT22;4563;54.756;9.400;2022-08-20T10:17:53;28.20;53.50
9057;DHT22;4563;54.756;9.400;2022-08-20T10:20:23;28.30;53.20
9057;DHT22;4563;54.756;9.400;2022-08-20T10:22:50;28.50;53.40
9057;DHT22;4563;54.756;9.400;2022-08-20T10:25:18;28.50;52.50
9057;DHT22;4563;54.756;9.400;2022-08-20T10:27:45;28.60;51.50
9057;DHT22;4563;54.756;9.400;2022-08-20T10:30:12;28.70;50.80
9057;DHT22;4563;54.756;9.400;2022-08-20T10:32:39;28.90;50.50
9057;DHT22;4563;54.756;9.400;2022-08-20T10:35:07;29.00;50.00
9057;DHT22;4563;54.756;9.400;2022-08-20T10:37:36;29.10;49.80
9057;DHT22;4563;54.756;9.400;2022-08-20T10:40:05;29.30;49.80
9057;DHT22;4563;54.756;9.400;2022-08-20T10:42:32;29.40;49.00
9057;DHT22;4563;54.756;9.400;2022-08-20T10:44:59;29.50;49.00
9057;DHT22;4563;54.756;9.400;2022-08-20T10:47:30;29.70;50.40
9057;DHT22;4563;54.756;9.400;2022-08-20T10:49:59;29.80;51.60
9057;DHT22;4563;54.756;9.400;2022-08-20T10:52:27;30.00;51.00
9057;DHT22;4563;54.756;9.400;2022-08-20T10:54:55;30.20;51.30
9057;DHT22;4563;54.756;9.400;2022-08-20T10:57:24;30.30;51.60
9057;DHT22;4563;54.756;9.400;2022-08-20T10:59:53;30.50;51.60
9057;DHT22;4563;54.756;9.400;2022-08-20T11:02:21;30.60;51.20
9057;DHT22;4563;54.756;9.400;2022-08-20T11:04:49;30.80;51.20
9057;DHT22;4563;54.756;9.400;2022-08-20T11:07:18;31.00;50.70
9057;DHT22;4563;54.756;9.400;2022-08-20T11:09:46;31.20;50.80
9057;DHT22;4563;54.756;9.400;2022-08-20T11:12:17;31.40;50.70
9057;DHT22;4563;54.756;9.400;2022-08-20T11:14:44;31.50;50.80
9057;DHT22;4563;54.756;9.400;2022-08-20T11:17:12;31.70;50.00
9057;DHT22;4563;54.756;9.400;2022-08-20T11:19:41;31.90;49.90
9057;DHT22;4563;54.756;9.400;2022-08-20T11:22:10;32.00;49.50
9057;DHT22;4563;54.756;9.400;2022-08-20T11:24:37;32.20;49.20
9057;DHT22;4563;54.756;9.400;2022-08-20T11:27:05;32.30;49.20
9057;DHT22;4563;54.756;9.400;2022-08-20T11:29:35;32.40;48.90
9057;DHT22;4563;54.756;9.400;2022-08-20T11:32:06;32.50;49.20
9057;DHT22;4563;54.756;9.400;2022-08-20T11:34:33;32.50;49.50
9057;DHT22;4563;54.756;9.400;2022-08-20T11:37:00;32.50;48.30
9057;DHT22;4563;54.756;9.400;2022-08-20T11:39:27;32.50;48.00
9057;DHT22;4563;54.756;9.400;2022-08-20T11:41:54;32.50;47.80
9057;DHT22;4563;54.756;9.400;2022-08-20T11:44:21;32.60;48.10
9057;DHT22;4563;54.756;9.400;2022-08-20T11:46:51;32.60;48.10
9057;DHT22;4563;54.756;9.400;2022-08-20T11:49:18;32.60;47.80
9057;DHT22;4563;54.756;9.400;2022-08-20T11:51:44;32.70;47.70
9057;DHT22;4563;54.756;9.400;2022-08-20T11:54:11;32.70;47.60
9057;DHT22;4563;54.756;9.400;2022-08-20T11:56:38;32.70;47.40
9057;DHT22;4563;54.756;9.400;2022-08-20T11:59:05;32.70;47.40
9057;DHT22;4563;54.756;9.400;2022-08-20T12:01:32;32.80;47.20
9057;DHT22;4563;54.756;9.400;2022-08-20T12:04:00;32.80;47.30
9057;DHT22;4563;54.756;9.400;2022-08-20T12:06:27;32.90;47.00
9057;DHT22;4563;54.756;9.400;2022-08-20T12:08:56;32.90;46.70
9057;DHT22;4563;54.756;9.400;2022-08-20T12:11:23;33.00;47.00
9057;DHT22;4563;54.756;9.400;2022-08-20T12:13:50;33.10;46.70
9057;DHT22;4563;54.756;9.400;2022-08-20T12:16:18;33.20;46.40
9057;DHT22;4563;54.756;9.400;2022-08-20T12:18:46;33.30;46.50
9057;DHT22;4563;54.756;9.400;2022-08-20T12:21:17;33.30;46.00
9057;DHT22;4563;54.756;9.400;2022-08-20T12:23:45;33.40;46.20
9057;DHT22;4563;54.756;9.400;2022-08-20T12:26:13;33.50;46.00
9057;DHT22;4563;54.756;9.400;2022-08-20T12:28:41;33.60;46.10
9057;DHT22;4563;54.756;9.400;2022-08-20T12:31:08;33.70;45.60
9057;DHT22;4563;54.756;9.400;2022-08-20T12:33:35;33.70;45.90
9057;DHT22;4563;54.756;9.400;2022-08-20T12:36:02;33.80;46.20
9057;DHT22;4563;54.756;9.400;2022-08-20T12:38:31;33.90;45.30
9057;DHT22;4563;54.756;9.400;2022-08-20T12:40:58;34.00;44.80
9057;DHT22;4563;54.756;9.400;2022-08-20T12:43:25;34.00;45.10
9057;DHT22;4563;54.756;9.400;2022-08-20T12:45:52;34.00;44.80
9057;DHT22;4563;54.756;9.400;2022-08-20T12:48:19;34.10;44.60
9057;DHT22;4563;54.756;9.400;2022-08-20T12:50:47;34.10;44.80
9057;DHT22;4563;54.756;9.400;2022-08-20T12:53:14;34.10;44.70
9057;DHT22;4563;54.756;9.400;2022-08-20T12:55:43;34.00;44.20
9057;DHT22;4563;54.756;9.400;2022-08-20T12:58:10;34.00;44.20
9057;DHT22;4563;54.756;9.400;2022-08-20T13:00:39;34.00;43.90
9057;DHT22;4563;54.756;9.400;2022-08-20T13:03:10;33.90;44.00
9057;DHT22;4563;54.756;9.400;2022-08-20T13:05:38;33.80;44.10
9057;DHT22;4563;54.756;9.400;2022-08-20T13:08:07;33.70;44.30
9057;DHT22;4563;54.756;9.400;2022-08-20T13:10:37;33.70;44.60
9057;DHT22;4563;54.756;9.400;2022-08-20T13:13:10;33.60;44.30
9057;DHT22;4563;54.756;9.400;2022-08-20T13:15:37;33.60;44.50
9057;DHT22;4563;54.756;9.400;2022-08-20T13:18:05;33.50;44.60
9057;DHT22;4563;54.756;9.400;2022-08-20T13:20:32;33.40;44.80
9057;DHT22;4563;54.756;9.400;2022-08-20T13:22:59;33.30;44.80
9057;DHT22;4563;54.756;9.400;2022-08-20T13:25:26;33.30;45.10
9057;DHT22;4563;54.756;9.400;2022-08-20T13:27:55;33.20;44.90
9057;DHT22;4563;54.756;9.400;2022-08-20T13:30:25;33.20;45.40
9057;DHT22;4563;54.756;9.400;2022-08-20T13:33:12;33.10;45.80
9057;DHT22;4563;54.756;9.400;2022-08-20T13:35:38;33.00;50.80
9057;DHT22;4563;54.756;9.400;2022-08-20T13:38:06;32.90;45.90
9057;DHT22;4563;54.756;9.400;2022-08-20T13:40:33;32.80;45.50
9057;DHT22;4563;54.756;9.400;2022-08-20T13:43:01;32.70;46.00
9057;DHT22;4563;54.756;9.400;2022-08-20T13:45:30;32.60;46.30
9057;DHT22;4563;54.756;9.400;2022-08-20T13:47:57;32.50;46.30
9057;DHT22;4563;54.756;9.400;2022-08-20T13:50:25;32.40;46.20
9057;DHT22;4563;54.756;9.400;2022-08-20T13:52:52;32.30;46.00
9057;DHT22;4563;54.756;9.400;2022-08-20T13:55:22;32.10;46.00
9057;DHT22;4563;54.756;9.400;2022-08-20T13:57:50;32.10;46.40
9057;DHT22;4563;54.756;9.400;2022-08-20T14:00:20;31.90;46.10
9057;DHT22;4563;54.756;9.400;2022-08-20T14:02:49;31.80;46.10
9057;DHT22;4563;54.756;9.400;2022-08-20T14:05:16;31.80;46.30
9057;DHT22;4563;54.756;9.400;2022-08-20T14:07:44;31.60;46.30
9057;DHT22;4563;54.756;9.400;2022-08-20T14:10:13;31.50;46.10
9057;DHT22;4563;54.756;9.400;2022-08-20T14:12:40;31.40;46.40
9057;DHT22;4563;54.756;9.400;2022-08-20T14:15:09;31.20;46.40
9057;DHT22;4563;54.756;9.400;2022-08-20T14:17:38;31.10;46.50
9057;DHT22;4563;54.756;9.400;2022-08-20T14:20:10;31.00;46.90
9057;DHT22;4563;54.756;9.400;2022-08-20T14:22:37;30.80;47.40
9057;DHT22;4563;54.756;9.400;2022-08-20T14:25:05;30.70;47.10
9057;DHT22;4563;54.756;9.400;2022-08-20T14:27:33;30.60;47.40
9057;DHT22;4563;54.756;9.400;2022-08-20T14:30:06;30.50;47.70
9057;DHT22;4563;54.756;9.400;2022-08-20T14:32:34;30.30;47.60
9057;DHT22;4563;54.756;9.400;2022-08-20T14:35:01;30.20;47.90
9057;DHT22;4563;54.756;9.400;2022-08-20T14:37:31;30.10;48.40
9057;DHT22;4563;54.756;9.400;2022-08-20T14:40:00;30.00;48.50
9057;DHT22;4563;54.756;9.400;2022-08-20T14:42:28;29.90;48.50
9057;DHT22;4563;54.756;9.400;2022-08-20T14:44:57;29.80;48.40
9057;DHT22;4563;54.756;9.400;2022-08-20T14:47:27;29.70;48.80
9057;DHT22;4563;54.756;9.400;2022-08-20T14:49:57;29.50;48.80
9057;DHT22;4563;54.756;9.400;2022-08-20T14:52:26;29.40;49.30
9057;DHT22;4563;54.756;9.400;2022-08-20T14:54:55;29.30;49.40
9057;DHT22;4563;54.756;9.400;2022-08-20T14:57:22;29.20;49.50
9057;DHT22;4563;54.756;9.400;2022-08-20T14:59:51;29.10;49.40
9057;DHT22;4563;54.756;9.400;2022-08-20T15:02:19;29.00;49.80
9057;DHT22;4563;54.756;9.400;2022-08-20T15:04:46;29.00;49.80
9057;DHT22;4563;54.756;9.400;2022-08-20T15:07:20;28.80;50.00
9057;DHT22;4563;54.756;9.400;2022-08-20T15:09:47;28.80;50.00
9057;DHT22;4563;54.756;9.400;2022-08-20T15:12:16;28.70;50.10
9057;DHT22;4563;54.756;9.400;2022-08-20T15:14:43;28.70;50.30
9057;DHT22;4563;54.756;9.400;2022-08-20T15:17:10;28.60;50.30
9057;DHT22;4563;54.756;9.400;2022-08-20T15:19:37;28.50;50.40
9057;DHT22;4563;54.756;9.400;2022-08-20T15:22:04;28.40;50.40
9057;DHT22;4563;54.756;9.400;2022-08-20T15:24:32;28.30;50.40
9057;DHT22;4563;54.756;9.400;2022-08-20T15:27:09;28.30;50.60
9057;DHT22;4563;54.756;9.400;2022-08-20T15:29:39;28.20;52.80
9057;DHT22;4563;54.756;9.400;2022-08-20T15:32:06;28.10;51.30
9057;DHT22;4563;54.756;9.400;2022-08-20T15:34:33;28.00;51.20
9057;DHT22;4563;54.756;9.400;2022-08-20T15:37:05;28.00;51.20
9057;DHT22;4563;54.756;9.400;2022-08-20T15:39:32;27.90;51.90
9057;DHT22;4563;54.756;9.400;2022-08-20T15:41:59;27.80;50.90
9057;DHT22;4563;54.756;9.400;2022-08-20T15:44:27;27.80;50.70
9057;DHT22;4563;54.756;9.400;2022-08-20T15:46:55;27.70;50.60
9057;DHT22;4563;54.756;9.400;2022-08-20T15:49:22;27.70;50.80
9057;DHT22;4563;54.756;9.400;2022-08-20T15:51:50;27.60;50.60
9057;DHT22;4563;54.756;9.400;2022-08-20T15:54:19;27.50;50.60
9057;DHT22;4563;54.756;9.400;2022-08-20T15:56:52;27.50;50.70
9057;DHT22;4563;54.756;9.400;2022-08-20T15:59:38;27.40;50.90
9057;DHT22;4563;54.756;9.400;2022-08-20T16:02:23;27.30;52.60
9057;DHT22;4563;54.756;9.400;2022-08-20T16:05:13;27.30;52.20
9057;DHT22;4563;54.756;9.400;2022-08-20T16:07:48;27.20;51.80
9057;DHT22;4563;54.756;9.400;2022-08-20T16:10:23;27.20;50.70
9057;DHT22;4563;54.756;9.400;2022-08-20T16:12:55;27.10;50.80
9057;DHT22;4563;54.756;9.400;2022-08-20T16:15:25;27.10;50.40
9057;DHT22;4563;54.756;9.400;2022-08-20T16:17:59;27.00;50.50
9057;DHT22;4563;54.756;9.400;2022-08-20T16:20:32;26.90;51.20
9057;DHT22;4563;54.756;9.400;2022-08-20T16:23:01;26.90;50.80
9057;DHT22;4563;54.756;9.400;2022-08-20T16:25:32;26.80;50.20
9057;DHT22;4563;54.756;9.400;2022-08-20T16:28:17;26.80;50.40